Time;durP1;ratioP1;P1;durP2;ratioP2;P2;SDS_P1;SDS_P2;PMS_P1;PMS_P2;Temp;Humidity;BMP_temperature;BMP_pressure;BME280_temperature;BME280_humidity;BME280_pressure;Samples;Min_cycle;Max_cycle;Signal;HPM_P1;HPM_P2
2021/12/29 00:00:56;;;;;;;1.70;1.13;;;;;15.20;99798.00;;;;5039899;28;20437;-84
2021/12/29 00:03:23;;;;;;;2.58;1.38;;;;;15.20;99805.00;;;;5050618;28;20211;-84
2021/12/29 00:05:50;;;;;;;3.65;1.48;;;;;15.20;99807.00;;;;5050772;28;20222;-84
2021/12/29 00:08:17;;;;;;;1.88;1.25;;;;;15.20;99802.00;;;;5051042;28;20199;-84
2021/12/29 00:10:46;;;;;;;4.13;1.55;;;;;15.30;99817.00;;;;5050393;28;20565;-84
2021/12/29 00:13:14;;;;;;;2.05;1.40;;;;;15.30;99823.00;;;;5050719;28;20576;-84
2021/12/29 00:15:41;;;;;;;3.20;1.30;;;;;15.30;99834.00;;;;5050175;28;20238;-83
2021/12/29 00:18:10;;;;;;;1.88;1.27;;;;;15.30;99840.00;;;;5032606;28;20546;-85
2021/12/29 00:20:37;;;;;;;5.55;0.90;;;;;15.30;99852.00;;;;5037533;28;20195;-85
2021/12/29 00:23:07;;;;;;;4.13;1.70;;;;;15.30;99859.00;;;;5050823;28;20391;-84
2021/12/29 00:25:34;;;;;;;4.95;1.23;;;;;15.20;99859.00;;;;5050917;28;20234;-83
2021/12/29 00:28:02;;;;;;;5.60;1.17;;;;;15.20;99864.00;;;;5050221;28;20673;-84
2021/12/29 00:30:29;;;;;;;2.60;1.23;;;;;15.20;99874.00;;;;5050057;28;20195;-83
2021/12/29 00:32:57;;;;;;;3.85;1.60;;;;;15.20;99874.00;;;;5049835;28;20200;-84
2021/12/29 00:35:27;;;;;;;2.42;1.13;;;;;15.20;99883.00;;;;5030532;28;20205;-83
2021/12/29 00:37:54;;;;;;;5.72;1.63;;;;;15.20;99881.00;;;;5030443;28;20235;-84
2021/12/29 00:40:22;;;;;;;5.80;1.52;;;;;15.20;99892.00;;;;5030785;28;20200;-84
2021/12/29 00:42:49;;;;;;;2.58;0.90;;;;;15.20;99889.00;;;;5029659;28;20203;-84
2021/12/29 00:45:16;;;;;;;4.22;1.13;;;;;15.20;99896.00;;;;5030127;28;20223;-84
2021/12/29 00:47:44;;;;;;;4.57;1.60;;;;;15.20;99901.00;;;;5030461;28;20235;-84
2021/12/29 00:50:15;;;;;;;3.35;1.60;;;;;15.20;99910.00;;;;5030545;28;20211;-83
2021/12/29 00:52:45;;;;;;;4.10;1.55;;;;;15.20;99919.00;;;;5029869;28;20240;-84
2021/12/29 00:55:13;;;;;;;5.38;1.52;;;;;15.30;99928.00;;;;5029834;28;20670;-84
2021/12/29 00:57:41;;;;;;;3.33;1.25;;;;;15.30;99925.00;;;;5029644;28;20216;-84
2021/12/29 01:00:11;;;;;;;5.88;1.70;;;;;15.30;99932.00;;;;5029131;28;20350;-84
2021/12/29 01:02:38;;;;;;;5.97;1.23;;;;;15.30;99936.00;;;;5028934;28;20231;-83
2021/12/29 01:05:07;;;;;;;4.10;1.67;;;;;15.30;99937.00;;;;5029597;28;20569;-84
2021/12/29 01:07:34;;;;;;;7.38;1.60;;;;;15.30;99949.00;;;;5033849;28;20684;-83
2021/12/29 01:10:05;;;;;;;6.25;1.40;;;;;15.20;99939.00;;;;5048919;28;20218;-84
2021/12/29 01:12:32;;;;;;;7.15;2.10;;;;;15.20;99961.00;;;;5049033;28;20203;-84
2021/12/29 01:15:01;;;;;;;3.20;1.40;;;;;15.20;99977.00;;;;5048591;28;20203;-84
2021/12/29 01:17:28;;;;;;;3.63;1.85;;;;;15.30;99982.00;;;;5048344;28;20231;-84
2021/12/29 01:19:56;;;;;;;3.90;1.40;;;;;15.20;99993.00;;;;5048407;28;20206;-84
2021/12/29 01:22:24;;;;;;;5.30;1.20;;;;;15.20;99993.00;;;;5048750;28;20570;-84
2021/12/29 01:24:51;;;;;;;7.88;2.08;;;;;15.20;100004.00;;;;5040494;28;20670;-84
2021/12/29 01:27:20;;;;;;;6.35;1.80;;;;;15.20;100011.00;;;;5029153;28;20230;-84
2021/12/29 01:29:47;;;;;;;4.40;1.23;;;;;15.20;100022.00;;;;5028055;28;20215;-84
2021/12/29 01:32:15;;;;;;;4.63;1.20;;;;;15.20;100022.00;;;;5028997;28;20212;-84
2021/12/29 01:34:42;;;;;;;4.30;1.70;;;;;15.20;100024.00;;;;5043112;28;20203;-84
2021/12/29 01:37:10;;;;;;;2.55;1.13;;;;;15.20;100024.00;;;;5048791;28;20199;-84
2021/12/29 01:39:38;;;;;;;2.75;0.77;;;;;15.20;100032.00;;;;5048503;28;20253;-84
2021/12/29 01:42:05;;;;;;;4.55;1.42;;;;;15.20;100040.00;;;;5038381;28;20209;-84
2021/12/29 01:44:36;;;;;;;2.65;1.13;;;;;15.20;100040.00;;;;5028678;28;20204;-84
2021/12/29 01:47:03;;;;;;;3.40;0.73;;;;;15.20;100043.00;;;;5028224;28;20706;-84
2021/12/29 01:49:31;;;;;;;3.35;1.00;;;;;15.20;100049.00;;;;5028561;28;20195;-84
2021/12/29 01:52:04;;;;;;;3.13;1.40;;;;;15.20;100049.00;;;;5028663;28;20545;-84
2021/12/29 01:54:35;;;;;;;3.20;1.42;;;;;15.20;100047.00;;;;5028013;28;20207;-83
2021/12/29 01:57:05;;;;;;;2.95;1.30;;;;;15.20;100049.00;;;;5027424;28;20204;-83
2021/12/29 01:59:35;;;;;;;2.20;1.20;;;;;15.20;100064.00;;;;5028572;28;20207;-83
2021/12/29 02:02:03;;;;;;;4.97;1.25;;;;;15.20;100061.00;;;;5028097;28;20209;-84
2021/12/29 02:04:30;;;;;;;4.50;1.40;;;;;15.20;100067.00;;;;5027684;28;20196;-82
2021/12/29 02:06:57;;;;;;;3.75;1.38;;;;;15.20;100075.00;;;;5028897;28;20235;-84
2021/12/29 02:09:24;;;;;;;7.28;1.73;;;;;15.20;100073.00;;;;5028406;28;20207;-84
2021/12/29 02:11:52;;;;;;;5.15;1.60;;;;;15.20;100082.00;;;;5028875;28;20211;-84
2021/12/29 02:14:19;;;;;;;4.18;1.48;;;;;15.20;100083.00;;;;5028588;28;20204;-84
2021/12/29 02:16:48;;;;;;;6.03;1.60;;;;;15.20;100094.00;;;;5042027;28;20732;-83
2021/12/29 02:19:15;;;;;;;4.30;1.33;;;;;15.20;100092.00;;;;5048433;28;20216;-84
2021/12/29 02:21:54;;;;;;;4.25;1.20;;;;;15.20;100095.00;;;;5047850;28;20218;-84
2021/12/29 02:24:35;;;;;;;5.18;1.80;;;;;15.30;100093.00;;;;5048148;28;20203;-84
2021/12/29 02:27:04;;;;;;;5.53;1.70;;;;;15.30;100102.00;;;;5047796;28;20228;-84
2021/12/29 02:29:34;;;;;;;4.50;1.33;;;;;15.30;100105.00;;;;5047528;28;20578;-83
2021/12/29 02:32:01;;;;;;;4.93;1.52;;;;;15.30;100101.00;;;;5046407;28;20230;-84
2021/12/29 02:34:29;;;;;;;3.35;1.50;;;;;15.30;100101.00;;;;5027820;28;20211;-83
2021/12/29 02:37:01;;;;;;;3.50;1.40;;;;;15.30;100103.00;;;;5028037;28;20204;-84
2021/12/29 02:39:30;;;;;;;4.80;1.30;;;;;15.30;100097.00;;;;5027448;28;20214;-84
2021/12/29 02:41:57;;;;;;;4.15;1.92;;;;;15.30;100098.00;;;;5027777;28;20196;-84
2021/12/29 02:44:28;;;;;;;4.93;1.65;;;;;15.30;100093.00;;;;5040215;28;20608;-84
2021/12/29 02:46:58;;;;;;;3.13;1.05;;;;;15.40;100095.00;;;;5047484;28;20677;-84
2021/12/29 02:49:27;;;;;;;2.90;1.13;;;;;15.40;100090.00;;;;5043900;28;20208;-84
2021/12/29 02:51:54;;;;;;;2.63;1.50;;;;;15.40;100093.00;;;;5027676;28;20208;-84
2021/12/29 02:54:23;;;;;;;3.90;1.63;;;;;15.40;100102.00;;;;5027582;28;20204;-84
2021/12/29 02:56:54;;;;;;;4.68;1.60;;;;;15.40;100115.00;;;;5026640;28;20576;-83
2021/12/29 02:59:22;;;;;;;3.92;1.60;;;;;15.50;100113.00;;;;5031641;28;20306;-84
2021/12/29 03:01:50;;;;;;;5.53;1.48;;;;;15.50;100128.00;;;;5046727;28;20211;-84
2021/12/29 03:04:17;;;;;;;3.05;1.27;;;;;15.50;100132.00;;;;5048122;28;20588;-84
2021/12/29 03:06:45;;;;;;;5.50;1.63;;;;;15.50;100145.00;;;;5046683;28;20222;-84
2021/12/29 03:09:16;;;;;;;3.78;1.23;;;;;15.40;100143.00;;;;5048107;28;20204;-84
2021/12/29 03:11:45;;;;;;;1.60;0.98;;;;;15.50;100145.00;;;;5047496;28;20207;-84
2021/12/29 03:14:14;;;;;;;2.05;1.13;;;;;15.50;100158.00;;;;5047665;28;20203;-84
2021/12/29 03:16:41;;;;;;;2.78;0.95;;;;;15.50;100168.00;;;;5049764;28;20231;-84
2021/12/29 03:19:09;;;;;;;3.63;1.33;;;;;15.50;100168.00;;;;5051319;28;20207;-84
2021/12/29 03:21:37;;;;;;;1.90;1.10;;;;;15.50;100164.00;;;;5050969;28;20219;-84
2021/12/29 03:24:05;;;;;;;3.80;1.30;;;;;15.50;100180.00;;;;5041407;28;20666;-84
2021/12/29 03:26:33;;;;;;;3.38;1.45;;;;;15.50;100171.00;;;;5031044;28;20705;-84
2021/12/29 03:29:02;;;;;;;2.42;1.20;;;;;15.50;100173.00;;;;5030804;28;20223;-84
2021/12/29 03:31:32;;;;;;;2.03;0.98;;;;;15.50;100177.00;;;;5030927;28;20200;-84
2021/12/29 03:34:00;;;;;;;3.72;1.02;;;;;15.50;100191.00;;;;5031596;28;20220;-84
2021/12/29 03:36:28;;;;;;;4.05;1.25;;;;;15.50;100197.00;;;;5030331;28;20243;-84
2021/12/29 03:38:56;;;;;;;6.30;0.93;;;;;15.50;100201.00;;;;5048800;28;20580;-84
2021/12/29 03:41:24;;;;;;;3.50;1.40;;;;;15.50;100215.00;;;;5050545;28;20203;-84
2021/12/29 03:43:51;;;;;;;3.45;0.93;;;;;15.50;100225.00;;;;5050309;28;20188;-84
2021/12/29 03:46:20;;;;;;;3.80;1.10;;;;;15.50;100232.00;;;;5050557;28;20603;-84
2021/12/29 03:48:49;;;;;;;1.45;0.90;;;;;15.50;100229.00;;;;5050704;28;20231;-84
2021/12/29 03:51:16;;;;;;;4.65;0.90;;;;;15.50;100236.00;;;;5050347;28;20665;-84
2021/12/29 03:53:44;;;;;;;6.78;1.45;;;;;15.50;100222.00;;;;5050494;28;20208;-84
2021/12/29 03:56:11;;;;;;;1.92;1.00;;;;;15.50;100213.00;;;;5049352;28;20685;-84
2021/12/29 03:58:41;;;;;;;3.15;1.23;;;;;15.50;100218.00;;;;5036072;28;20225;-85
2021/12/29 04:01:11;;;;;;;3.53;1.50;;;;;15.50;100225.00;;;;5030354;28;20200;-84
2021/12/29 04:03:42;;;;;;;2.67;1.23;;;;;15.50;100229.00;;;;5030932;28;20207;-84
2021/12/29 04:06:09;;;;;;;2.10;0.82;;;;;15.50;100233.00;;;;5031254;28;20208;-84
2021/12/29 04:08:37;;;;;;;2.75;0.95;;;;;15.50;100233.00;;;;5030951;28;20227;-84
2021/12/29 04:11:04;;;;;;;6.68;1.10;;;;;15.50;100239.00;;;;5031381;28;20200;-84
2021/12/29 04:13:31;;;;;;;1.58;0.82;;;;;15.50;100241.00;;;;5030033;28;20204;-84
2021/12/29 04:15:59;;;;;;;1.42;1.30;;;;;15.40;100239.00;;;;5047563;28;20235;-84
2021/12/29 04:18:30;;;;;;;2.20;0.95;;;;;15.50;100239.00;;;;5050327;28;20286;-84
2021/12/29 04:21:03;;;;;;;3.45;1.30;;;;;15.40;100236.00;;;;5050557;28;20199;-84
2021/12/29 04:23:32;;;;;;;1.95;0.98;;;;;15.40;100237.00;;;;5049954;28;20223;-85
2021/12/29 04:26:02;;;;;;;4.00;1.02;;;;;15.40;100239.00;;;;5050176;28;20188;-84
2021/12/29 04:28:30;;;;;;;2.97;0.90;;;;;15.40;100252.00;;;;5050434;28;20223;-84
2021/12/29 04:31:00;;;;;;;2.67;1.20;;;;;15.40;100249.00;;;;5049534;28;20215;-84
2021/12/29 04:33:29;;;;;;;1.58;1.00;;;;;15.40;100251.00;;;;5030350;28;20566;-84
2021/12/29 04:35:58;;;;;;;2.42;1.10;;;;;15.40;100253.00;;;;5030338;28;20204;-84
2021/12/29 04:38:26;;;;;;;3.75;1.17;;;;;15.40;100259.00;;;;5029932;28;20208;-84
2021/12/29 04:40:55;;;;;;;1.88;1.08;;;;;15.40;100257.00;;;;5030487;28;20202;-82
2021/12/29 04:43:24;;;;;;;1.60;1.00;;;;;15.40;100256.00;;;;5030710;28;20199;-82
2021/12/29 04:45:51;;;;;;;2.50;1.05;;;;;15.40;100261.00;;;;5028881;28;20208;-83
2021/12/29 04:48:19;;;;;;;1.50;1.08;;;;;15.40;100262.00;;;;5033185;28;20242;-84
2021/12/29 04:50:52;;;;;;;2.47;1.30;;;;;15.40;100276.00;;;;5049165;28;20879;-85
2021/12/29 04:53:24;;;;;;;1.40;1.08;;;;;15.40;100283.00;;;;5050011;28;20423;-82
2021/12/29 04:55:54;;;;;;;3.72;1.30;;;;;15.40;100280.00;;;;5049650;28;20199;-82
2021/12/29 04:58:23;;;;;;;1.38;0.98;;;;;15.40;100295.00;;;;5050094;28;20701;-82
2021/12/29 05:00:52;;;;;;;1.13;0.90;;;;;15.40;100296.00;;;;5049626;28;20191;-82
2021/12/29 05:03:19;;;;;;;1.70;0.95;;;;;15.40;100293.00;;;;5049653;28;20202;-82
2021/12/29 05:08:24;;;;;;;1.70;0.90;;;;;15.40;100295.00;;;;5042455;28;20208;-83
2021/12/29 05:08:44;;;;;;;2.70;1.02;;;;;15.40;100296.00;;;;5029321;28;20230;-82
2021/12/29 05:11:15;;;;;;;5.82;1.00;;;;;15.40;100294.00;;;;5029844;28;20696;-82
2021/12/29 05:13:44;;;;;;;1.25;0.93;;;;;15.40;100296.00;;;;5029476;28;20236;-82
2021/12/29 05:16:12;;;;;;;1.35;0.82;;;;;15.40;100292.00;;;;5029641;28;20224;-82
2021/12/29 05:18:40;;;;;;;1.17;1.08;;;;;15.40;100290.00;;;;5029120;28;20211;-83
2021/12/29 05:21:09;;;;;;;1.58;0.82;;;;;15.40;100289.00;;;;5037270;28;20239;-83
2021/12/29 05:23:37;;;;;;;1.38;1.10;;;;;15.40;100292.00;;;;5035620;28;20227;-82
2021/12/29 05:26:06;;;;;;;1.52;0.90;;;;;15.30;100292.00;;;;5028827;28;20196;-82
2021/12/29 05:28:33;;;;;;;1.30;0.57;;;;;15.30;100300.00;;;;5029179;28;20235;-83
2021/12/29 05:31:00;;;;;;;1.85;0.80;;;;;15.30;100304.00;;;;5029505;28;20674;-83
2021/12/29 05:33:28;;;;;;;1.77;0.85;;;;;15.30;100309.00;;;;5029565;28;20211;-83
2021/12/29 05:35:55;;;;;;;1.27;0.85;;;;;15.30;100307.00;;;;5029302;28;20211;-83
2021/12/29 05:38:23;;;;;;;1.90;0.73;;;;;15.30;100302.00;;;;5028184;28;20219;-82
2021/12/29 05:40:51;;;;;;;1.55;0.90;;;;;15.30;100313.00;;;;5029617;28;20411;-83
2021/12/29 05:43:20;;;;;;;1.85;0.77;;;;;15.30;100309.00;;;;5029496;28;20674;-82
2021/12/29 05:45:49;;;;;;;3.55;1.30;;;;;15.20;100316.00;;;;5029245;28;20200;-83
2021/12/29 05:48:16;;;;;;;3.05;1.33;;;;;15.20;100306.00;;;;5028864;28;20710;-83
2021/12/29 05:50:44;;;;;;;1.33;1.00;;;;;15.20;100316.00;;;;5028737;28;20202;-83
2021/12/29 05:53:11;;;;;;;2.38;1.33;;;;;15.20;100325.00;;;;5029199;28;20200;-83
2021/12/29 05:55:41;;;;;;;4.57;1.65;;;;;15.20;100314.00;;;;5029286;28;20231;-83
2021/12/29 05:58:09;;;;;;;4.10;1.27;;;;;15.30;100324.00;;;;5046618;28;20300;-83
2021/12/29 06:00:39;;;;;;;2.58;1.60;;;;;15.20;100333.00;;;;5048414;28;20748;-83
2021/12/29 06:03:08;;;;;;;3.75;2.05;;;;;15.30;100331.00;;;;5047911;28;20294;-82
2021/12/29 06:05:35;;;;;;;2.28;1.73;;;;;15.20;100343.00;;;;5048188;28;20196;-83
2021/12/29 06:08:02;;;;;;;4.78;1.42;;;;;15.20;100344.00;;;;5048093;28;20226;-83
2021/12/29 06:10:30;;;;;;;3.08;1.48;;;;;15.20;100344.00;;;;5047994;28;20680;-83
2021/12/29 06:12:57;;;;;;;4.85;1.92;;;;;15.20;100339.00;;;;5047344;28;20231;-83
2021/12/29 06:15:25;;;;;;;2.50;1.25;;;;;15.20;100343.00;;;;5044466;28;20207;-83
2021/12/29 06:17:54;;;;;;;4.22;1.77;;;;;15.20;100346.00;;;;5047634;28;20199;-83
2021/12/29 06:20:21;;;;;;;2.75;1.63;;;;;15.30;100358.00;;;;5047970;28;20207;-83
2021/12/29 06:22:48;;;;;;;3.75;2.13;;;;;15.30;100354.00;;;;5047436;28;20213;-83
2021/12/29 06:25:18;;;;;;;3.75;2.05;;;;;15.30;100355.00;;;;5048332;28;20673;-83
2021/12/29 06:27:46;;;;;;;4.38;1.80;;;;;15.30;100362.00;;;;5032629;28;20292;-83
2021/12/29 06:30:15;;;;;;;6.55;2.08;;;;;15.30;100359.00;;;;5028239;28;20227;-83
2021/12/29 06:32:44;;;;;;;3.40;1.58;;;;;15.30;100359.00;;;;5028519;28;20203;-83
2021/12/29 06:35:14;;;;;;;3.55;1.70;;;;;15.30;100361.00;;;;5028020;28;20205;-83
2021/12/29 06:37:41;;;;;;;3.83;1.60;;;;;15.30;100353.00;;;;5041641;28;20208;-82
2021/12/29 06:40:10;;;;;;;2.10;1.80;;;;;15.30;100354.00;;;;5048547;28;20215;-83
2021/12/29 06:42:37;;;;;;;5.05;1.73;;;;;15.30;100367.00;;;;5049129;28;20203;-83
2021/12/29 06:45:06;;;;;;;3.60;1.50;;;;;15.30;100367.00;;;;5048238;28;20207;-82
2021/12/29 06:47:33;;;;;;;1.63;1.52;;;;;15.30;100363.00;;;;5046736;28;20214;-83
2021/12/29 06:50:01;;;;;;;3.20;1.83;;;;;15.30;100380.00;;;;5050632;28;20235;-83
2021/12/29 06:52:30;;;;;;;5.18;1.92;;;;;15.30;100381.00;;;;5052550;28;20191;-83
2021/12/29 06:54:57;;;;;;;2.83;1.25;;;;;15.30;100392.00;;;;5052430;28;20207;-83
2021/12/29 06:57:26;;;;;;;3.63;1.48;;;;;15.30;100395.00;;;;5051475;28;20203;-82
2021/12/29 06:59:54;;;;;;;1.88;1.30;;;;;15.30;100418.00;;;;5052366;28;20294;-83
2021/12/29 07:02:22;;;;;;;4.95;1.92;;;;;15.30;100415.00;;;;5052088;28;20214;-83
2021/12/29 07:04:49;;;;;;;3.05;1.73;;;;;15.30;100414.00;;;;5051581;28;20204;-83
2021/12/29 07:07:16;;;;;;;2.60;1.45;;;;;15.40;100419.00;;;;5052039;28;20199;-83
2021/12/29 07:09:45;;;;;;;2.10;1.45;;;;;15.30;100417.00;;;;5051523;28;20231;-83
2021/12/29 07:12:12;;;;;;;3.28;1.70;;;;;15.40;100409.00;;;;5051948;28;20592;-83
2021/12/29 07:14:39;;;;;;;1.90;1.60;;;;;15.40;100421.00;;;;5052312;28;20199;-83
2021/12/29 07:17:07;;;;;;;3.78;1.85;;;;;15.40;100431.00;;;;5050867;28;20281;-84
2021/12/29 07:19:34;;;;;;;2.78;1.60;;;;;15.40;100432.00;;;;5050576;28;20211;-83
2021/12/29 07:22:03;;;;;;;3.55;1.88;;;;;15.40;100436.00;;;;5049842;28;20222;-83
2021/12/29 07:24:31;;;;;;;3.17;1.52;;;;;15.40;100439.00;;;;5051007;28;20195;-83
2021/12/29 07:27:00;;;;;;;2.40;1.77;;;;;15.40;100435.00;;;;5051127;28;20208;-83
2021/12/29 07:29:27;;;;;;;4.25;2.28;;;;;15.40;100437.00;;;;5050561;28;20609;-83
2021/12/29 07:31:57;;;;;;;2.92;1.80;;;;;15.40;100449.00;;;;5050865;28;20227;-83
2021/12/29 07:34:24;;;;;;;6.53;2.03;;;;;15.40;100455.00;;;;5051237;28;20573;-83
2021/12/29 07:36:52;;;;;;;4.20;1.70;;;;;15.40;100458.00;;;;5050654;28;20192;-84
2021/12/29 07:39:20;;;;;;;4.03;2.28;;;;;15.40;100454.00;;;;5038709;28;20196;-84
2021/12/29 07:41:48;;;;;;;2.40;1.45;;;;;15.40;100466.00;;;;5030819;28;20315;-84
2021/12/29 07:44:17;;;;;;;3.38;1.90;;;;;15.40;100463.00;;;;5031575;28;20282;-84
2021/12/29 07:46:46;;;;;;;2.38;1.75;;;;;15.40;100466.00;;;;5030425;28;20215;-84
2021/12/29 07:49:14;;;;;;;3.05;1.60;;;;;15.40;100470.00;;;;5030874;28;20220;-84
2021/12/29 07:51:41;;;;;;;2.97;2.15;;;;;15.40;100467.00;;;;5030465;28;20204;-84
2021/12/29 07:54:09;;;;;;;2.58;1.73;;;;;15.40;100468.00;;;;5030728;28;20236;-84
2021/12/29 07:56:37;;;;;;;3.80;1.80;;;;;15.40;100467.00;;;;5044562;28;20605;-84
2021/12/29 07:59:04;;;;;;;8.57;1.80;;;;;15.40;100467.00;;;;5050577;28;20237;-84
2021/12/29 08:01:33;;;;;;;4.90;2.30;;;;;15.40;100462.00;;;;5049128;28;20542;-85
2021/12/29 08:04:01;;;;;;;3.40;1.75;;;;;15.40;100467.00;;;;5051090;28;20211;-84
2021/12/29 08:06:29;;;;;;;2.22;1.63;;;;;15.40;100464.00;;;;5049788;28;20238;-84
2021/12/29 08:08:56;;;;;;;2.55;1.60;;;;;15.40;100461.00;;;;5050557;28;20230;-84
2021/12/29 08:11:24;;;;;;;4.57;1.92;;;;;15.40;100462.00;;;;5050523;28;20210;-83
2021/12/29 08:13:51;;;;;;;3.42;2.00;;;;;15.40;100456.00;;;;5049560;28;20204;-84
2021/12/29 08:16:19;;;;;;;2.13;1.80;;;;;15.40;100468.00;;;;5049336;28;20228;-86
2021/12/29 08:18:48;;;;;;;3.95;1.98;;;;;15.40;100471.00;;;;5050152;28;20208;-85
2021/12/29 08:21:16;;;;;;;3.65;1.48;;;;;15.40;100475.00;;;;5049812;28;20206;-85
2021/12/29 08:23:43;;;;;;;2.53;2.03;;;;;15.40;100470.00;;;;5049531;28;20199;-85
2021/12/29 08:26:10;;;;;;;4.47;1.80;;;;;15.40;100462.00;;;;5050493;28;20218;-85
2021/12/29 08:28:38;;;;;;;4.07;2.03;;;;;15.50;100471.00;;;;5048652;28;20775;-83
2021/12/29 08:31:05;;;;;;;3.05;2.00;;;;;15.50;100475.00;;;;5032245;28;20204;-83
2021/12/29 08:33:33;;;;;;;3.45;1.88;;;;;15.50;100468.00;;;;5029985;28;20196;-83
2021/12/29 08:36:02;;;;;;;5.57;3.17;;;;;15.50;100468.00;;;;5030164;28;20204;-83
2021/12/29 08:38:29;;;;;;;4.85;2.90;;;;;15.50;100476.00;;;;5029684;28;20211;-83
2021/12/29 08:40:56;;;;;;;4.13;2.90;;;;;15.50;100469.00;;;;5029875;28;20196;-85
2021/12/29 08:43:24;;;;;;;6.45;3.60;;;;;15.50;100475.00;;;;5029710;28;20200;-85
2021/12/29 08:45:51;;;;;;;6.68;3.03;;;;;15.50;100486.00;;;;5037274;28;20206;-85
2021/12/29 08:48:19;;;;;;;4.07;3.03;;;;;15.50;100486.00;;;;5029556;28;20204;-85
2021/12/29 08:50:46;;;;;;;5.63;2.90;;;;;15.50;100485.00;;;;5029547;28;20211;-86
2021/12/29 08:53:15;;;;;;;3.30;2.45;;;;;15.50;100485.00;;;;5029091;28;20207;-85
2021/12/29 08:55:46;;;;;;;3.38;2.50;;;;;15.40;100480.00;;;;5029735;28;20204;-85
2021/12/29 08:58:14;;;;;;;6.00;2.65;;;;;15.50;100494.00;;;;5029897;28;20308;-85
2021/12/29 09:00:42;;;;;;;2.80;2.55;;;;;15.50;100492.00;;;;5029702;28;20619;-85
2021/12/29 09:03:10;;;;;;;4.80;2.47;;;;;15.50;100476.00;;;;5028842;28;20192;-85
2021/12/29 09:05:38;;;;;;;3.17;2.88;;;;;15.50;100484.00;;;;5029234;28;20559;-85
2021/12/29 09:08:06;;;;;;;5.97;3.38;;;;;15.50;100474.00;;;;5029248;28;20576;-85
2021/12/29 09:10:36;;;;;;;4.45;2.95;;;;;15.40;100471.00;;;;5028815;28;20698;-85
2021/12/29 09:13:04;;;;;;;3.70;2.97;;;;;15.50;100477.00;;;;5029204;28;20200;-85
2021/12/29 09:15:32;;;;;;;3.70;2.35;;;;;15.50;100484.00;;;;5029369;28;20573;-84
2021/12/29 09:18:00;;;;;;;3.05;2.60;;;;;15.50;100474.00;;;;5029080;28;20200;-85
2021/12/29 09:20:30;;;;;;;6.05;3.22;;;;;15.50;100475.00;;;;5028841;28;20231;-84
2021/12/29 09:23:00;;;;;;;3.92;2.63;;;;;15.50;100467.00;;;;5049051;28;20234;-85
2021/12/29 09:25:28;;;;;;;4.18;2.10;;;;;15.50;100458.00;;;;5048861;28;20200;-85
2021/12/29 09:27:58;;;;;;;3.25;2.20;;;;;15.50;100453.00;;;;5048735;28;20207;-84
2021/12/29 09:30:29;;;;;;;2.90;2.38;;;;;15.50;100456.00;;;;5048026;28;20223;-85
2021/12/29 09:32:57;;;;;;;3.25;2.25;;;;;15.50;100457.00;;;;5048080;28;20187;-85
2021/12/29 09:35:25;;;;;;;3.05;2.17;;;;;15.50;100455.00;;;;5048943;28;20203;-85
2021/12/29 09:37:53;;;;;;;5.57;2.90;;;;;15.50;100463.00;;;;5040527;28;20212;-85
2021/12/29 09:40:22;;;;;;;4.45;2.70;;;;;15.50;100461.00;;;;5029825;28;20262;-85
2021/12/29 09:42:58;;;;;;;4.95;2.50;;;;;15.50;100463.00;;;;5029254;28;20215;-85
2021/12/29 09:45:27;;;;;;;5.15;2.40;;;;;15.60;100469.00;;;;5033450;28;20261;-85
2021/12/29 09:47:57;;;;;;;2.83;2.47;;;;;15.60;100464.00;;;;5049572;28;20325;-86
2021/12/29 09:50:26;;;;;;;3.92;2.50;;;;;15.60;100459.00;;;;5049872;28;20348;-85
2021/12/29 09:52:54;;;;;;;3.47;2.65;;;;;15.60;100450.00;;;;5048826;28;20203;-85
2021/12/29 09:55:23;;;;;;;6.18;3.05;;;;;15.60;100456.00;;;;5047704;28;20707;-85
2021/12/29 09:57:52;;;;;;;3.92;2.50;;;;;15.60;100464.00;;;;5048286;28;20222;-84
2021/12/29 10:00:28;;;;;;;5.43;2.17;;;;;15.50;100479.00;;;;5048965;28;20196;-84
2021/12/29 10:02:57;;;;;;;5.05;3.00;;;;;15.60;100462.00;;;;5048615;28;20210;-84
2021/12/29 10:05:27;;;;;;;5.05;2.97;;;;;15.60;100453.00;;;;5048556;28;20200;-83
2021/12/29 10:08:00;;;;;;;3.97;3.40;;;;;15.60;100462.00;;;;5048354;28;20218;-85
2021/12/29 10:10:28;;;;;;;3.03;2.63;;;;;15.60;100454.00;;;;5048108;28;20269;-84
2021/12/29 10:12:57;;;;;;;3.80;2.70;;;;;15.60;100455.00;;;;5046631;28;20632;-83
2021/12/29 10:15:30;;;;;;;3.25;2.38;;;;;15.60;100449.00;;;;5048373;28;20202;-83
2021/12/29 10:18:06;;;;;;;3.35;2.55;;;;;15.60;100453.00;;;;5048277;28;20200;-84
2021/12/29 10:20:43;;;;;;;3.38;2.45;;;;;15.70;100448.00;;;;5048091;28;20195;-84
2021/12/29 10:23:15;;;;;;;5.55;2.33;;;;;15.80;100445.00;;;;5027784;28;20215;-85
2021/12/29 10:25:49;;;;;;;5.60;2.53;;;;;15.70;100422.00;;;;5027660;28;20208;-85
2021/12/29 10:28:24;;;;;;;3.20;2.50;;;;;15.70;100417.00;;;;5028883;28;20257;-85
2021/12/29 10:30:59;;;;;;;4.03;2.95;;;;;15.70;100422.00;;;;5027469;28;20220;-85
2021/12/29 10:33:31;;;;;;;4.72;2.30;;;;;15.80;100414.00;;;;5027362;28;20227;-85
2021/12/29 10:36:10;;;;;;;3.17;2.50;;;;;15.80;100417.00;;;;5028511;28;20200;-85
2021/12/29 10:38:37;;;;;;;3.90;2.80;;;;;15.70;100412.00;;;;5027854;28;20652;-85
2021/12/29 10:41:06;;;;;;;4.03;2.88;;;;;15.80;100424.00;;;;5027286;28;20208;-84
2021/12/29 10:43:34;;;;;;;3.53;3.22;;;;;15.70;100421.00;;;;5033199;28;20202;-84
2021/12/29 10:46:02;;;;;;;4.07;2.67;;;;;15.70;100424.00;;;;5038933;28;20445;-84
2021/12/29 10:48:31;;;;;;;3.38;2.55;;;;;15.70;100421.00;;;;5027370;28;20216;-84
2021/12/29 10:51:05;;;;;;;3.58;2.75;;;;;15.70;100414.00;;;;5027710;28;20313;-84
2021/12/29 10:53:34;;;;;;;3.38;2.70;;;;;15.70;100405.00;;;;5027740;28;20294;-85
2021/12/29 10:56:02;;;;;;;3.50;2.83;;;;;15.80;100407.00;;;;5027780;28;20208;-86
2021/12/29 10:58:33;;;;;;;3.75;3.05;;;;;15.80;100413.00;;;;5027713;28;20220;-85
2021/12/29 11:01:07;;;;;;;3.38;2.55;;;;;15.80;100418.00;;;;5027274;28;20223;-85
2021/12/29 11:03:42;;;;;;;3.53;2.70;;;;;15.80;100426.00;;;;5028055;28;20207;-85
2021/12/29 11:06:13;;;;;;;3.80;2.90;;;;;15.90;100426.00;;;;5027727;28;20651;-85
2021/12/29 11:08:49;;;;;;;4.63;2.95;;;;;15.90;100443.00;;;;5027089;28;20580;-86
2021/12/29 11:11:18;;;;;;;3.35;2.75;;;;;15.90;100446.00;;;;5027838;28;20277;-85
2021/12/29 11:13:46;;;;;;;4.60;3.45;;;;;16.00;100449.00;;;;5028102;28;20289;-84
2021/12/29 11:16:18;;;;;;;4.40;2.97;;;;;16.00;100453.00;;;;5027325;28;20236;-85
2021/12/29 11:18:48;;;;;;;5.13;3.17;;;;;16.00;100447.00;;;;5027105;28;20211;-84
2021/12/29 11:21:24;;;;;;;6.60;3.63;;;;;16.00;100461.00;;;;5032062;28;20235;-86
2021/12/29 11:23:51;;;;;;;5.35;3.35;;;;;16.00;100450.00;;;;5047058;28;20627;-86
2021/12/29 11:26:29;;;;;;;4.93;3.03;;;;;15.90;100448.00;;;;5047528;28;20207;-86
2021/12/29 11:29:05;;;;;;;3.83;3.03;;;;;15.90;100440.00;;;;5044016;28;20682;-86
2021/12/29 11:31:39;;;;;;;5.43;3.10;;;;;15.90;100426.00;;;;5027029;28;20199;-86
2021/12/29 11:34:19;;;;;;;5.63;2.78;;;;;15.90;100432.00;;;;5027183;28;20213;-85
2021/12/29 11:37:00;;;;;;;3.85;2.83;;;;;16.00;100404.00;;;;5029619;28;20250;-85
2021/12/29 11:39:27;;;;;;;3.85;2.65;;;;;16.00;100407.00;;;;5030873;28;20283;-85
2021/12/29 11:41:55;;;;;;;4.28;3.80;;;;;16.00;100405.00;;;;5030806;28;20278;-85
2021/12/29 11:44:22;;;;;;;5.60;2.75;;;;;16.00;100405.00;;;;5030812;28;20211;-86
2021/12/29 11:46:51;;;;;;;4.65;3.40;;;;;16.00;100407.00;;;;5030649;28;20286;-86
2021/12/29 11:49:19;;;;;;;3.58;3.20;;;;;16.00;100415.00;;;;5030756;28;20200;-85
2021/12/29 11:51:55;;;;;;;5.18;2.95;;;;;16.00;100423.00;;;;5030863;28;20212;-85
2021/12/29 11:54:31;;;;;;;3.53;3.08;;;;;16.00;100424.00;;;;5035940;28;20708;-85
2021/12/29 11:56:58;;;;;;;4.40;3.28;;;;;16.00;100413.00;;;;5040312;28;20195;-85
2021/12/29 11:59:31;;;;;;;6.18;3.63;;;;;16.00;100409.00;;;;5050535;28;20222;-86
2021/12/29 12:02:02;;;;;;;3.70;3.00;;;;;16.00;100405.00;;;;5050753;28;20203;-85
2021/12/29 12:04:29;;;;;;;3.95;2.95;;;;;16.00;100402.00;;;;5050812;28;20653;-85
2021/12/29 12:07:03;;;;;;;3.80;3.30;;;;;16.00;100392.00;;;;5049732;28;20673;-85
2021/12/29 12:09:44;;;;;;;5.28;3.17;;;;;16.00;100381.00;;;;5050121;28;20200;-85
2021/12/29 12:12:12;;;;;;;5.43;3.25;;;;;16.00;100396.00;;;;5031687;28;20216;-85
2021/12/29 12:14:46;;;;;;;5.78;3.42;;;;;16.00;100388.00;;;;5030470;28;20204;-85
2021/12/29 12:17:17;;;;;;;5.30;3.38;;;;;16.00;100390.00;;;;5030321;28;20329;-85